sensor_id;sensor_type;location;lat;lon;timestamp;pressure;altitude;pressure_sealevel;temperature;humidity
43161;BME280;40968;52.342;5.528;2023-05-29T00:01:35;102299.13;;;11.76;59.49
43161;BME280;40968;52.342;5.528;2023-05-29T00:04:03;102390.53;;;12.24;59.43
43161;BME280;40968;52.342;5.528;2023-05-29T00:06:30;102497.09;;;12.89;59.36
43161;BME280;40968;52.342;5.528;2023-05-29T00:08:56;102427.97;;;12.43;59.26
43161;BME280;40968;52.342;5.528;2023-05-29T00:11:25;102490.97;;;12.71;59.24
43161;BME280;40968;52.342;5.528;2023-05-29T00:13:51;102452.63;;;12.51;59.48
43161;BME280;40968;52.342;5.528;2023-05-29T00:16:18;102163.25;;;10.76;59.31
43161;BME280;40968;52.342;5.528;2023-05-29T00:18:45;102504.84;;;12.79;59.34
43161;BME280;40968;52.342;5.528;2023-05-29T00:21:12;102513.63;;;12.83;60.26
43161;BME280;40968;52.342;5.528;2023-05-29T00:23:39;102426.84;;;12.31;59.80
43161;BME280;40968;52.342;5.528;2023-05-29T00:26:06;102510.56;;;12.73;59.53
43161;BME280;40968;52.342;5.528;2023-05-29T00:28:35;102515.09;;;12.72;59.66
43161;BME280;40968;52.342;5.528;2023-05-29T00:31:02;102084.69;;;10.07;59.66
43161;BME280;40968;52.342;5.528;2023-05-29T00:33:28;102390.63;;;11.73;59.92
43161;BME280;40968;52.342;5.528;2023-05-29T00:35:55;102413.94;;;12.06;59.62
43161;BME280;40968;52.342;5.528;2023-05-29T00:38:22;102522.81;;;12.63;59.68
43161;BME280;40968;52.342;5.528;2023-05-29T00:40:49;102385.78;;;11.80;60.15
43161;BME280;40968;52.342;5.528;2023-05-29T00:43:16;102517.69;;;12.58;60.33
43161;BME280;40968;52.342;5.528;2023-05-29T00:45:44;102437.00;;;12.10;60.18
43161;BME280;40968;52.342;5.528;2023-05-29T00:48:10;102432.56;;;12.09;60.44
43161;BME280;40968;52.342;5.528;2023-05-29T00:50:37;102521.44;;;12.55;59.77
43161;BME280;40968;52.342;5.528;2023-05-29T00:53:04;102514.47;;;12.51;60.22
43161;BME280;40968;52.342;5.528;2023-05-29T00:55:33;102513.78;;;12.48;60.76
43161;BME280;40968;52.342;5.528;2023-05-29T00:58:00;102420.91;;;11.92;60.37
43161;BME280;40968;52.342;5.528;2023-05-29T01:00:27;102418.88;;;11.80;60.44
43161;BME280;40968;52.342;5.528;2023-05-29T01:02:57;102513.16;;;12.26;60.27
43161;BME280;40968;52.342;5.528;2023-05-29T01:05:24;102438.81;;;11.76;60.35
43161;BME280;40968;52.342;5.528;2023-05-29T01:07:51;102543.16;;;12.35;60.74
43161;BME280;40968;52.342;5.528;2023-05-29T01:10:18;102461.53;;;11.86;60.30
43161;BME280;40968;52.342;5.528;2023-05-29T01:12:50;102483.47;;;11.94;60.81
43161;BME280;40968;52.342;5.528;2023-05-29T01:15:28;102545.22;;;12.30;60.81
43161;BME280;40968;52.342;5.528;2023-05-29T01:18:19;102367.34;;;11.22;60.43
43161;BME280;40968;52.342;5.528;2023-05-29T01:20:52;102427.47;;;11.53;61.01
43161;BME280;40968;52.342;5.528;2023-05-29T01:23:33;102526.97;;;12.03;61.04
43161;BME280;40968;52.342;5.528;2023-05-29T01:26:19;102541.72;;;12.11;61.43
43161;BME280;40968;52.342;5.528;2023-05-29T01:28:52;102546.41;;;12.08;61.64
43161;BME280;40968;52.342;5.528;2023-05-29T01:31:19;102551.22;;;12.01;61.39
43161;BME280;40968;52.342;5.528;2023-05-29T01:33:52;102240.94;;;10.07;61.47
43161;BME280;40968;52.342;5.528;2023-05-29T01:36:19;102559.81;;;11.90;61.34
43161;BME280;40968;52.342;5.528;2023-05-29T01:38:45;102463.66;;;11.28;61.54
43161;BME280;40968;52.342;5.528;2023-05-29T01:41:14;102483.88;;;11.36;62.30
43161;BME280;40968;52.342;5.528;2023-05-29T01:43:42;102557.63;;;11.81;62.25
43161;BME280;40968;52.342;5.528;2023-05-29T01:46:11;102563.16;;;11.78;61.93
43161;BME280;40968;52.342;5.528;2023-05-29T01:48:38;102565.84;;;11.78;62.35
43161;BME280;40968;52.342;5.528;2023-05-29T01:51:06;102568.66;;;11.75;62.72
43161;BME280;40968;52.342;5.528;2023-05-29T01:53:33;102518.31;;;11.45;62.74
43161;BME280;40968;52.342;5.528;2023-05-29T01:56:01;102587.47;;;11.75;62.49
43161;BME280;40968;52.342;5.528;2023-05-29T01:58:29;102504.94;;;11.26;62.30
43161;BME280;40968;52.342;5.528;2023-05-29T02:00:57;102255.31;;;9.68;62.34
43161;BME280;40968;52.342;5.528;2023-05-29T02:03:25;102583.94;;;11.57;62.67
43161;BME280;40968;52.342;5.528;2023-05-29T02:05:54;102473.41;;;10.94;62.93
43161;BME280;40968;52.342;5.528;2023-05-29T02:08:21;102474.16;;;10.98;63.08
43161;BME280;40968;52.342;5.528;2023-05-29T02:10:48;102441.34;;;10.74;62.75
43161;BME280;40968;52.342;5.528;2023-05-29T02:13:14;102362.03;;;10.14;63.04
43161;BME280;40968;52.342;5.528;2023-05-29T02:15:41;102421.63;;;10.57;63.61
43161;BME280;40968;52.342;5.528;2023-05-29T02:18:09;102386.94;;;10.35;63.38
43161;BME280;40968;52.342;5.528;2023-05-29T02:20:38;102418.13;;;10.55;63.03
43161;BME280;40968;52.342;5.528;2023-05-29T02:23:05;102571.91;;;11.47;63.70
43161;BME280;40968;52.342;5.528;2023-05-29T02:25:32;102399.91;;;10.44;63.99
43161;BME280;40968;52.342;5.528;2023-05-29T02:27:59;102567.09;;;11.36;63.46
43161;BME280;40968;52.342;5.528;2023-05-29T02:30:27;102587.47;;;11.40;63.14
43161;BME280;40968;52.342;5.528;2023-05-29T02:32:53;102582.25;;;11.37;63.68
43161;BME280;40968;52.342;5.528;2023-05-29T02:35:20;102580.66;;;11.33;63.27
43161;BME280;40968;52.342;5.528;2023-05-29T02:37:49;102370.53;;;10.05;63.19
43161;BME280;40968;52.342;5.528;2023-05-29T02:40:17;102585.53;;;11.24;63.30
43161;BME280;40968;52.342;5.528;2023-05-29T02:42:43;102527.22;;;10.91;63.09
43161;BME280;40968;52.342;5.528;2023-05-29T02:45:10;102506.91;;;10.86;63.35
43161;BME280;40968;52.342;5.528;2023-05-29T02:47:37;102575.81;;;11.22;63.47
43161;BME280;40968;52.342;5.528;2023-05-29T02:50:05;102530.69;;;10.93;63.37
43161;BME280;40968;52.342;5.528;2023-05-29T02:52:32;102570.84;;;11.14;63.66
43161;BME280;40968;52.342;5.528;2023-05-29T02:55:00;102589.63;;;11.14;63.65
43161;BME280;40968;52.342;5.528;2023-05-29T02:57:27;102528.84;;;10.76;63.59
43161;BME280;40968;52.342;5.528;2023-05-29T02:59:53;102585.63;;;11.04;63.15
43161;BME280;40968;52.342;5.528;2023-05-29T03:02:21;102477.94;;;10.18;63.45
43161;BME280;40968;52.342;5.528;2023-05-29T03:04:47;102583.19;;;10.99;63.79
43161;BME280;40968;52.342;5.528;2023-05-29T03:07:16;102590.44;;;10.97;63.68
43161;BME280;40968;52.342;5.528;2023-05-29T03:09:42;102433.84;;;10.06;63.87
43161;BME280;40968;52.342;5.528;2023-05-29T03:12:10;102586.25;;;10.91;63.98
43161;BME280;40968;52.342;5.528;2023-05-29T03:14:37;102582.03;;;10.86;63.89
43161;BME280;40968;52.342;5.528;2023-05-29T03:17:04;102580.59;;;10.78;64.19
43161;BME280;40968;52.342;5.528;2023-05-29T03:19:32;102519.00;;;10.39;63.90
43161;BME280;40968;52.342;5.528;2023-05-29T03:21:58;102584.50;;;10.71;63.96
43161;BME280;40968;52.342;5.528;2023-05-29T03:24:25;102441.97;;;9.85;64.11
43161;BME280;40968;52.342;5.528;2023-05-29T03:26:52;102423.75;;;9.73;64.33
43161;BME280;40968;52.342;5.528;2023-05-29T03:29:20;102592.13;;;10.61;64.12
43161;BME280;40968;52.342;5.528;2023-05-29T03:31:47;102449.59;;;9.74;64.54
43161;BME280;40968;52.342;5.528;2023-05-29T03:34:14;102580.56;;;10.59;64.63
43161;BME280;40968;52.342;5.528;2023-05-29T03:36:40;102412.81;;;9.58;64.89
43161;BME280;40968;52.342;5.528;2023-05-29T03:39:07;102563.59;;;10.40;64.76
43161;BME280;40968;52.342;5.528;2023-05-29T03:41:34;102571.88;;;10.54;64.99
43161;BME280;40968;52.342;5.528;2023-05-29T03:44:01;102532.00;;;10.27;64.96
43161;BME280;40968;52.342;5.528;2023-05-29T03:46:30;102408.38;;;9.57;64.54
43161;BME280;40968;52.342;5.528;2023-05-29T03:48:57;102577.03;;;10.59;65.36
43161;BME280;40968;52.342;5.528;2023-05-29T03:51:24;102565.22;;;10.63;64.96
43161;BME280;40968;52.342;5.528;2023-05-29T03:53:51;101834.94;;;6.29;64.89
43161;BME280;40968;52.342;5.528;2023-05-29T03:56:17;102475.56;;;10.11;64.52
43161;BME280;40968;52.342;5.528;2023-05-29T03:58:44;102526.09;;;10.40;64.68
43161;BME280;40968;52.342;5.528;2023-05-29T04:01:10;102391.41;;;9.38;64.70
43161;BME280;40968;52.342;5.528;2023-05-29T04:03:38;102505.31;;;10.24;64.78
43161;BME280;40968;52.342;5.528;2023-05-29T04:06:06;102586.25;;;10.72;64.73
43161;BME280;40968;52.342;5.528;2023-05-29T04:08:33;102466.22;;;10.01;64.80
43161;BME280;40968;52.342;5.528;2023-05-29T04:11:00;102230.88;;;8.58;64.52
43161;BME280;40968;52.342;5.528;2023-05-29T04:13:28;102413.47;;;9.63;64.78
43161;BME280;40968;52.342;5.528;2023-05-29T04:15:55;102463.88;;;9.93;64.39
43161;BME280;40968;52.342;5.528;2023-05-29T04:18:22;102607.50;;;10.77;64.35
43161;BME280;40968;52.342;5.528;2023-05-29T04:20:50;102605.75;;;10.76;64.33
43161;BME280;40968;52.342;5.528;2023-05-29T04:23:17;102613.63;;;10.79;64.89
43161;BME280;40968;52.342;5.528;2023-05-29T04:25:43;102398.09;;;9.48;64.66
43161;BME280;40968;52.342;5.528;2023-05-29T04:28:10;102520.69;;;10.21;64.36
43161;BME280;40968;52.342;5.528;2023-05-29T04:30:37;102619.44;;;10.70;64.47
43161;BME280;40968;52.342;5.528;2023-05-29T04:33:04;102626.69;;;10.68;64.58
43161;BME280;40968;52.342;5.528;2023-05-29T04:35:31;102456.88;;;9.70;64.87
43161;BME280;40968;52.342;5.528;2023-05-29T04:37:59;102624.06;;;10.66;65.36
43161;BME280;40968;52.342;5.528;2023-05-29T04:40:25;102627.47;;;10.70;65.38
43161;BME280;40968;52.342;5.528;2023-05-29T04:42:52;102630.97;;;10.72;65.24
43161;BME280;40968;52.342;5.528;2023-05-29T04:45:19;102628.13;;;10.75;65.08
43161;BME280;40968;52.342;5.528;2023-05-29T04:47:47;102638.88;;;10.75;65.04
43161;BME280;40968;52.342;5.528;2023-05-29T04:50:15;102457.97;;;9.66;65.53
43161;BME280;40968;52.342;5.528;2023-05-29T04:52:43;102638.72;;;10.78;65.20
43161;BME280;40968;52.342;5.528;2023-05-29T04:55:11;102632.50;;;10.77;65.12
43161;BME280;40968;52.342;5.528;2023-05-29T04:57:38;102536.31;;;10.11;65.41
43161;BME280;40968;52.342;5.528;2023-05-29T05:00:06;102561.66;;;10.23;65.08
43161;BME280;40968;52.342;5.528;2023-05-29T05:02:34;102640.81;;;10.71;65.16
43161;BME280;40968;52.342;5.528;2023-05-29T05:05:02;102589.97;;;10.49;65.62
43161;BME280;40968;52.342;5.528;2023-05-29T05:07:28;102558.63;;;10.31;65.38
43161;BME280;40968;52.342;5.528;2023-05-29T05:09:55;102586.28;;;10.52;65.40
43161;BME280;40968;52.342;5.528;2023-05-29T05:12:23;102479.44;;;9.85;65.15
43161;BME280;40968;52.342;5.528;2023-05-29T05:14:50;102643.03;;;10.82;65.58
43161;BME280;40968;52.342;5.528;2023-05-29T05:17:16;102641.94;;;10.86;65.53
43161;BME280;40968;52.342;5.528;2023-05-29T05:19:43;102513.94;;;10.12;64.79
43161;BME280;40968;52.342;5.528;2023-05-29T05:22:10;102658.81;;;10.88;64.81
43161;BME280;40968;52.342;5.528;2023-05-29T05:24:37;102609.13;;;10.60;64.65
43161;BME280;40968;52.342;5.528;2023-05-29T05:27:04;102653.22;;;10.93;64.94
43161;BME280;40968;52.342;5.528;2023-05-29T05:29:32;102657.59;;;10.95;64.58
43161;BME280;40968;52.342;5.528;2023-05-29T05:31:59;102516.41;;;10.17;64.44
43161;BME280;40968;52.342;5.528;2023-05-29T05:34:25;102492.53;;;9.91;64.58
43161;BME280;40968;52.342;5.528;2023-05-29T05:36:52;102600.16;;;10.61;64.57
43161;BME280;40968;52.342;5.528;2023-05-29T05:39:19;102599.06;;;10.66;64.35
43161;BME280;40968;52.342;5.528;2023-05-29T05:41:45;102658.16;;;11.02;64.23
43161;BME280;40968;52.342;5.528;2023-05-29T05:44:12;102655.31;;;11.05;64.38
43161;BME280;40968;52.342;5.528;2023-05-29T05:46:40;102496.19;;;10.09;64.29
43161;BME280;40968;52.342;5.528;2023-05-29T05:49:07;102657.00;;;11.08;64.00
43161;BME280;40968;52.342;5.528;2023-05-29T05:51:33;102592.34;;;10.76;63.50
43161;BME280;40968;52.342;5.528;2023-05-29T05:54:00;102656.78;;;11.13;62.65
43161;BME280;40968;52.342;5.528;2023-05-29T05:56:27;102594.88;;;10.79;62.72
43161;BME280;40968;52.342;5.528;2023-05-29T05:58:53;102647.56;;;11.18;62.50
43161;BME280;40968;52.342;5.528;2023-05-29T06:01:20;102351.50;;;9.52;62.42
43161;BME280;40968;52.342;5.528;2023-05-29T06:03:49;102608.69;;;11.08;62.12
43161;BME280;40968;52.342;5.528;2023-05-29T06:06:15;102497.97;;;10.49;61.57
43161;BME280;40968;52.342;5.528;2023-05-29T06:08:44;102595.94;;;11.13;61.90
43161;BME280;40968;52.342;5.528;2023-05-29T06:11:11;102438.63;;;10.18;61.68
43161;BME280;40968;52.342;5.528;2023-05-29T06:13:37;102659.19;;;11.55;60.80
43161;BME280;40968;52.342;5.528;2023-05-29T06:16:04;102596.19;;;11.26;61.33
43161;BME280;40968;52.342;5.528;2023-05-29T06:18:31;102660.63;;;11.63;60.35
43161;BME280;40968;52.342;5.528;2023-05-29T06:20:59;102580.56;;;11.17;60.50
43161;BME280;40968;52.342;5.528;2023-05-29T06:23:26;102620.34;;;11.45;59.84
43161;BME280;40968;52.342;5.528;2023-05-29T06:25:53;102587.53;;;11.02;59.90
43161;BME280;40968;52.342;5.528;2023-05-29T06:28:19;102547.06;;;11.06;59.67
43161;BME280;40968;52.342;5.528;2023-05-29T06:30:46;102551.56;;;11.06;59.43
43161;BME280;40968;52.342;5.528;2023-05-29T06:33:13;102653.03;;;11.71;59.77
43161;BME280;40968;52.342;5.528;2023-05-29T06:35:40;102632.38;;;11.73;59.12
43161;BME280;40968;52.342;5.528;2023-05-29T06:38:08;102538.34;;;11.20;58.11
43161;BME280;40968;52.342;5.528;2023-05-29T06:40:34;102479.41;;;10.82;58.11
43161;BME280;40968;52.342;5.528;2023-05-29T06:43:01;102532.63;;;11.26;57.92
43161;BME280;40968;52.342;5.528;2023-05-29T06:45:28;102634.91;;;11.93;57.19
43161;BME280;40968;52.342;5.528;2023-05-29T06:47:55;102662.59;;;12.13;56.76
43161;BME280;40968;52.342;5.528;2023-05-29T06:50:21;102624.22;;;11.74;56.20
43161;BME280;40968;52.342;5.528;2023-05-29T06:52:48;102641.31;;;11.91;55.59
43161;BME280;40968;52.342;5.528;2023-05-29T06:55:16;102613.81;;;11.86;55.63
43161;BME280;40968;52.342;5.528;2023-05-29T06:57:43;102636.19;;;12.04;55.41
43161;BME280;40968;52.342;5.528;2023-05-29T07:00:10;102625.78;;;11.98;55.12
43161;BME280;40968;52.342;5.528;2023-05-29T07:02:37;102649.94;;;12.15;55.49
43161;BME280;40968;52.342;5.528;2023-05-29T07:05:05;102686.28;;;12.40;54.76
43161;BME280;40968;52.342;5.528;2023-05-29T07:07:31;102608.84;;;11.96;54.67
43161;BME280;40968;52.342;5.528;2023-05-29T07:09:58;102511.28;;;11.42;54.68
43161;BME280;40968;52.342;5.528;2023-05-29T07:12:26;102681.44;;;12.47;54.83
43161;BME280;40968;52.342;5.528;2023-05-29T07:14:53;102609.16;;;12.07;54.56
43161;BME280;40968;52.342;5.528;2023-05-29T07:17:19;102629.88;;;12.22;54.75
43161;BME280;40968;52.342;5.528;2023-05-29T07:19:46;102687.25;;;12.72;54.67
43161;BME280;40968;52.342;5.528;2023-05-29T07:22:14;102688.66;;;12.80;54.79
43161;BME280;40968;52.342;5.528;2023-05-29T07:24:41;102615.34;;;12.42;54.39
43161;BME280;40968;52.342;5.528;2023-05-29T07:27:07;102686.06;;;12.94;54.46
43161;BME280;40968;52.342;5.528;2023-05-29T07:29:35;102571.59;;;12.23;53.67
43161;BME280;40968;52.342;5.528;2023-05-29T07:32:02;102623.63;;;12.55;53.56
43161;BME280;40968;52.342;5.528;2023-05-29T07:34:29;102592.34;;;12.37;53.40
43161;BME280;40968;52.342;5.528;2023-05-29T07:36:57;102696.31;;;13.03;53.61
43161;BME280;40968;52.342;5.528;2023-05-29T07:39:25;102616.09;;;12.62;53.43
43161;BME280;40968;52.342;5.528;2023-05-29T07:41:52;102651.38;;;12.89;53.81
43161;BME280;40968;52.342;5.528;2023-05-29T07:44:19;102696.09;;;13.24;53.01
43161;BME280;40968;52.342;5.528;2023-05-29T07:46:47;102692.38;;;13.26;52.20
43161;BME280;40968;52.342;5.528;2023-05-29T07:49:14;102699.31;;;13.31;52.21
43161;BME280;40968;52.342;5.528;2023-05-29T07:51:41;102640.69;;;12.88;51.60
43161;BME280;40968;52.342;5.528;2023-05-29T07:54:07;102658.22;;;13.11;51.86
43161;BME280;40968;52.342;5.528;2023-05-29T07:56:34;102633.31;;;13.07;52.38
43161;BME280;40968;52.342;5.528;2023-05-29T07:59:01;102623.00;;;13.00;51.98
43161;BME280;40968;52.342;5.528;2023-05-29T08:01:28;102646.88;;;13.22;51.61
43161;BME280;40968;52.342;5.528;2023-05-29T08:03:56;102701.06;;;13.64;52.00
43161;BME280;40968;52.342;5.528;2023-05-29T08:06:23;102493.59;;;12.56;52.35
43161;BME280;40968;52.342;5.528;2023-05-29T08:08:50;102626.72;;;13.45;51.96
43161;BME280;40968;52.342;5.528;2023-05-29T08:11:17;102704.41;;;13.99;51.72
43161;BME280;40968;52.342;5.528;2023-05-29T08:13:44;102662.19;;;13.84;51.16
43161;BME280;40968;52.342;5.528;2023-05-29T08:16:11;102636.75;;;13.73;50.89
43161;BME280;40968;52.342;5.528;2023-05-29T08:18:39;102705.59;;;14.24;50.45
43161;BME280;40968;52.342;5.528;2023-05-29T08:21:07;102590.59;;;13.64;50.41
43161;BME280;40968;52.342;5.528;2023-05-29T08:23:35;102640.84;;;13.95;50.01
43161;BME280;40968;52.342;5.528;2023-05-29T08:26:02;102599.31;;;13.83;49.60
43161;BME280;40968;52.342;5.528;2023-05-29T08:28:29;102420.84;;;12.74;48.81
43161;BME280;40968;52.342;5.528;2023-05-29T08:30:55;102694.78;;;14.40;49.56
43161;BME280;40968;52.342;5.528;2023-05-29T08:33:22;102679.22;;;14.29;49.10
43161;BME280;40968;52.342;5.528;2023-05-29T08:35:48;102600.69;;;13.90;49.29
43161;BME280;40968;52.342;5.528;2023-05-29T08:38:16;102664.69;;;14.32;49.18
43161;BME280;40968;52.342;5.528;2023-05-29T08:40:43;102620.94;;;14.12;49.25
43161;BME280;40968;52.342;5.528;2023-05-29T08:43:12;102705.22;;;14.75;49.35
43161;BME280;40968;52.342;5.528;2023-05-29T08:45:43;102710.56;;;14.91;49.48
43161;BME280;40968;52.342;5.528;2023-05-29T08:48:11;102707.16;;;15.02;48.72
43161;BME280;40968;52.342;5.528;2023-05-29T08:50:41;102558.75;;;14.15;48.14
43161;BME280;40968;52.342;5.528;2023-05-29T08:53:10;102580.91;;;14.35;47.83
43161;BME280;40968;52.342;5.528;2023-05-29T08:55:38;102707.75;;;15.07;47.69
43161;BME280;40968;52.342;5.528;2023-05-29T08:58:05;102725.97;;;15.03;47.73
43161;BME280;40968;52.342;5.528;2023-05-29T09:00:31;102712.69;;;15.00;47.80
43161;BME280;40968;52.342;5.528;2023-05-29T09:02:58;102657.16;;;14.67;47.99
43161;BME280;40968;52.342;5.528;2023-05-29T09:05:26;102662.34;;;14.70;48.37
43161;BME280;40968;52.342;5.528;2023-05-29T09:07:53;102548.06;;;13.99;48.03
43161;BME280;40968;52.342;5.528;2023-05-29T09:10:19;102643.47;;;14.70;48.20
43161;BME280;40968;52.342;5.528;2023-05-29T09:12:48;102706.59;;;15.11;47.32
43161;BME280;40968;52.342;5.528;2023-05-29T09:15:20;102706.59;;;15.11;47.39
43161;BME280;40968;52.342;5.528;2023-05-29T09:17:49;102547.28;;;14.26;47.20
43161;BME280;40968;52.342;5.528;2023-05-29T09:20:17;102641.72;;;14.84;47.17
43161;BME280;40968;52.342;5.528;2023-05-29T09:22:52;102541.13;;;14.24;47.16
43161;BME280;40968;52.342;5.528;2023-05-29T09:25:20;102719.25;;;15.38;47.15
43161;BME280;40968;52.342;5.528;2023-05-29T09:27:51;102708.06;;;15.44;46.29
43161;BME280;40968;52.342;5.528;2023-05-29T09:30:31;102709.41;;;15.51;46.74
43161;BME280;40968;52.342;5.528;2023-05-29T09:32:59;102641.38;;;15.17;46.71
43161;BME280;40968;52.342;5.528;2023-05-29T09:35:26;102595.69;;;15.00;45.15
43161;BME280;40968;52.342;5.528;2023-05-29T09:37:53;102538.31;;;14.69;45.60
43161;BME280;40968;52.342;5.528;2023-05-29T09:40:21;102714.91;;;15.77;44.02
43161;BME280;40968;52.342;5.528;2023-05-29T09:42:49;102707.38;;;15.82;44.86
43161;BME280;40968;52.342;5.528;2023-05-29T09:45:17;102571.34;;;15.14;44.78
43161;BME280;40968;52.342;5.528;2023-05-29T09:47:44;102661.06;;;15.74;45.02
43161;BME280;40968;52.342;5.528;2023-05-29T09:50:18;102707.16;;;16.13;45.61
43161;BME280;40968;52.342;5.528;2023-05-29T09:52:45;102669.22;;;15.87;44.94
43161;BME280;40968;52.342;5.528;2023-05-29T09:55:13;102701.44;;;16.30;44.25
43161;BME280;40968;52.342;5.528;2023-05-29T09:57:44;102605.69;;;15.67;44.61
43161;BME280;40968;52.342;5.528;2023-05-29T10:00:15;102723.31;;;16.40;44.95
43161;BME280;40968;52.342;5.528;2023-05-29T10:02:42;102704.91;;;16.45;44.80
43161;BME280;40968;52.342;5.528;2023-05-29T10:05:08;102523.47;;;15.44;44.11
43161;BME280;40968;52.342;5.528;2023-05-29T10:07:37;102707.97;;;16.53;44.00
43161;BME280;40968;52.342;5.528;2023-05-29T10:10:11;102697.22;;;16.65;43.52
43161;BME280;40968;52.342;5.528;2023-05-29T10:12:38;102349.44;;;14.69;43.15
43161;BME280;40968;52.342;5.528;2023-05-29T10:15:10;102699.00;;;16.92;42.54
43161;BME280;40968;52.342;5.528;2023-05-29T10:17:44;102693.75;;;17.01;41.97
43161;BME280;40968;52.342;5.528;2023-05-29T10:20:16;102407.75;;;15.37;42.01
43161;BME280;40968;52.342;5.528;2023-05-29T10:22:45;102694.03;;;17.22;41.38
43161;BME280;40968;52.342;5.528;2023-05-29T10:25:13;102419.72;;;15.72;41.61
43161;BME280;40968;52.342;5.528;2023-05-29T10:27:41;102641.97;;;17.06;41.86
43161;BME280;40968;52.342;5.528;2023-05-29T10:30:14;102416.28;;;15.96;41.47
43161;BME280;40968;52.342;5.528;2023-05-29T10:33:00;102677.25;;;17.54;41.60
43161;BME280;40968;52.342;5.528;2023-05-29T10:35:31;102624.41;;;17.36;41.46
43161;BME280;40968;52.342;5.528;2023-05-29T10:38:11;102677.34;;;17.77;41.67
43161;BME280;40968;52.342;5.528;2023-05-29T10:40:38;102586.69;;;17.33;40.99
43161;BME280;40968;52.342;5.528;2023-05-29T10:43:04;102681.84;;;17.89;41.22
43161;BME280;40968;52.342;5.528;2023-05-29T10:45:50;102634.91;;;17.65;40.63
43161;BME280;40968;52.342;5.528;2023-05-29T10:48:50;102569.19;;;17.26;41.60
43161;BME280;40968;52.342;5.528;2023-05-29T10:51:27;102550.69;;;17.19;40.15
43161;BME280;40968;52.342;5.528;2023-05-29T10:53:56;102569.97;;;17.39;40.26
43161;BME280;40968;52.342;5.528;2023-05-29T10:56:27;102678.00;;;18.16;39.97
43161;BME280;40968;52.342;5.528;2023-05-29T10:58:57;102680.47;;;18.19;40.20
43161;BME280;40968;52.342;5.528;2023-05-29T11:01:27;102628.41;;;18.03;39.90
43161;BME280;40968;52.342;5.528;2023-05-29T11:04:25;102681.25;;;18.44;38.06
43161;BME280;40968;52.342;5.528;2023-05-29T11:06:52;102633.34;;;18.20;38.54
43161;BME280;40968;52.342;5.528;2023-05-29T11:09:26;102691.66;;;18.62;38.33
43161;BME280;40968;52.342;5.528;2023-05-29T11:12:21;102479.59;;;17.63;39.17
43161;BME280;40968;52.342;5.528;2023-05-29T11:15:03;102637.59;;;18.70;38.97
43161;BME280;40968;52.342;5.528;2023-05-29T11:17:43;102678.59;;;19.01;37.44
43161;BME280;40968;52.342;5.528;2023-05-29T11:20:28;102680.31;;;19.02;38.12
43161;BME280;40968;52.342;5.528;2023-05-29T11:23:01;102636.34;;;18.85;37.81
43161;BME280;40968;52.342;5.528;2023-05-29T11:25:28;102637.59;;;18.93;37.79
43161;BME280;40968;52.342;5.528;2023-05-29T11:27:58;102674.25;;;19.21;38.44
43161;BME280;40968;52.342;5.528;2023-05-29T11:30:25;102685.72;;;19.25;37.70
43161;BME280;40968;52.342;5.528;2023-05-29T11:32:53;102688.19;;;19.28;38.36
43161;BME280;40968;52.342;5.528;2023-05-29T11:35:23;102685.59;;;19.26;38.30
43161;BME280;40968;52.342;5.528;2023-05-29T11:37:50;102681.06;;;19.15;38.71
43161;BME280;40968;52.342;5.528;2023-05-29T11:40:17;102691.41;;;19.21;38.39
43161;BME280;40968;52.342;5.528;2023-05-29T11:42:46;102686.72;;;19.12;37.78
43161;BME280;40968;52.342;5.528;2023-05-29T11:45:14;102574.66;;;18.42;37.77
43161;BME280;40968;52.342;5.528;2023-05-29T11:47:55;102610.91;;;18.64;38.45
43161;BME280;40968;52.342;5.528;2023-05-29T11:50:24;102688.19;;;19.16;38.31
43161;BME280;40968;52.342;5.528;2023-05-29T11:52:51;102657.09;;;19.09;38.07
43161;BME280;40968;52.342;5.528;2023-05-29T11:55:18;102689.03;;;19.39;37.69
43161;BME280;40968;52.342;5.528;2023-05-29T11:57:46;102472.53;;;18.07;37.20
43161;BME280;40968;52.342;5.528;2023-05-29T12:00:14;102686.88;;;19.54;37.77
43161;BME280;40968;52.342;5.528;2023-05-29T12:02:41;102686.13;;;19.64;35.91
43161;BME280;40968;52.342;5.528;2023-05-29T12:05:09;102624.56;;;19.30;37.16
43161;BME280;40968;52.342;5.528;2023-05-29T12:07:46;102691.22;;;19.90;36.67
43161;BME280;40968;52.342;5.528;2023-05-29T12:10:15;102689.31;;;20.01;36.67
43161;BME280;40968;52.342;5.528;2023-05-29T12:12:42;102684.19;;;20.08;36.51
43161;BME280;40968;52.342;5.528;2023-05-29T12:15:09;102684.66;;;20.13;37.51
43161;BME280;40968;52.342;5.528;2023-05-29T12:17:37;102597.03;;;19.77;36.54
43161;BME280;40968;52.342;5.528;2023-05-29T12:20:05;102609.81;;;19.98;36.74
43161;BME280;40968;52.342;5.528;2023-05-29T12:22:35;102628.63;;;20.32;36.84
43161;BME280;40968;52.342;5.528;2023-05-29T12:25:09;102681.25;;;20.84;35.75
43161;BME280;40968;52.342;5.528;2023-05-29T12:27:37;102470.53;;;19.83;35.35
43161;BME280;40968;52.342;5.528;2023-05-29T12:30:09;102528.72;;;20.23;34.72
43161;BME280;40968;52.342;5.528;2023-05-29T12:32:37;102667.50;;;20.96;34.08
43161;BME280;40968;52.342;5.528;2023-05-29T12:35:15;102589.28;;;20.46;34.54
43161;BME280;40968;52.342;5.528;2023-05-29T12:37:44;102345.41;;;19.00;34.35
43161;BME280;40968;52.342;5.528;2023-05-29T12:40:19;102669.00;;;21.10;34.80
43161;BME280;40968;52.342;5.528;2023-05-29T12:42:46;102592.69;;;20.69;32.60
43161;BME280;40968;52.342;5.528;2023-05-29T12:45:14;102525.75;;;20.26;33.24
43161;BME280;40968;52.342;5.528;2023-05-29T12:47:51;102663.53;;;21.19;33.79
43161;BME280;40968;52.342;5.528;2023-05-29T12:50:25;102569.44;;;20.65;34.31
43161;BME280;40968;52.342;5.528;2023-05-29T12:52:57;102663.53;;;21.19;33.87
43161;BME280;40968;52.342;5.528;2023-05-29T12:55:34;102435.78;;;19.86;33.02
43161;BME280;40968;52.342;5.528;2023-05-29T12:58:02;102672.63;;;21.40;32.97